Time;durP1;ratioP1;P1;durP2;ratioP2;P2;SDS_P1;SDS_P2;PMS_P1;PMS_P2;Temp;Humidity;BMP_temperature;BMP_pressure;BME280_temperature;BME280_humidity;BME280_pressure;Samples;Min_cycle;Max_cycle;Signal;HPM_P1;HPM_P2
2023/08/14 00:01:38;;;;;;;20.55;11.10;;;;;;;;;;5043065;28;20055;-71
2023/08/14 00:04:04;;;;;;;29.25;14.88;;;;;;;;;;5054430;28;20051;-71
2023/08/14 00:06:29;;;;;;;23.95;14.00;;;;;;;;;;5036202;28;20021;-71
2023/08/14 00:08:54;;;;;;;23.40;13.63;;;;;;;;;;5052505;28;20048;-71
2023/08/14 00:11:19;;;;;;;27.95;14.68;;;;;;;;;;5053310;28;20390;-71
2023/08/14 00:13:52;;;;;;;29.30;15.80;;;;;;;;;;5050323;28;20079;-66
2023/08/14 00:16:17;;;;;;;28.65;16.42;;;;;;;;;;5043302;28;20100;-65
2023/08/14 00:18:43;;;;;;;22.05;14.10;;;;;;;;;;5050609;28;20064;-65
2023/08/14 00:21:08;;;;;;;26.20;15.93;;;;;;;;;;5041513;28;20111;-67
2023/08/14 00:23:33;;;;;;;24.95;16.92;;;;;;;;;;5043585;28;20022;-65
2023/08/14 00:25:58;;;;;;;28.58;17.45;;;;;;;;;;5047850;28;20028;-65
2023/08/14 00:28:24;;;;;;;30.38;19.10;;;;;;;;;;5035799;28;20020;-66
2023/08/14 00:30:49;;;;;;;32.17;19.58;;;;;;;;;;5034948;28;20021;-65
2023/08/14 00:33:14;;;;;;;33.80;21.23;;;;;;;;;;5052036;28;20037;-66
2023/08/14 00:35:40;;;;;;;41.03;23.05;;;;;;;;;;5041797;28;20079;-66
2023/08/14 00:38:05;;;;;;;41.60;25.00;;;;;;;;;;5043756;28;20029;-66
2023/08/14 00:40:30;;;;;;;41.88;25.67;;;;;;;;;;5046244;28;20016;-65
2023/08/14 00:42:55;;;;;;;50.08;25.58;;;;;;;;;;5043447;28;20026;-66
2023/08/14 00:45:20;;;;;;;44.97;25.63;;;;;;;;;;5051410;28;20120;-65
2023/08/14 00:47:46;;;;;;;50.42;25.67;;;;;;;;;;5052718;28;20067;-65
2023/08/14 00:50:12;;;;;;;45.33;25.63;;;;;;;;;;5048192;28;20017;-66
2023/08/14 00:52:39;;;;;;;46.65;27.00;;;;;;;;;;5049181;28;20033;-67
2023/08/14 00:55:07;;;;;;;35.70;23.15;;;;;;;;;;5050924;28;20016;-66
2023/08/14 00:57:33;;;;;;;39.58;22.67;;;;;;;;;;5050621;28;20025;-65
2023/08/14 00:59:59;;;;;;;26.50;16.67;;;;;;;;;;5049878;28;20071;-66
2023/08/14 01:02:25;;;;;;;26.00;14.27;;;;;;;;;;5051798;28;20052;-66
2023/08/14 01:04:50;;;;;;;38.70;19.05;;;;;;;;;;5075411;22;20032;-61
2023/08/14 01:07:15;;;;;;;38.13;20.23;;;;;;;;;;5071641;28;20025;-62
2023/08/14 01:09:41;;;;;;;42.73;22.83;;;;;;;;;;5071288;28;20016;-62
2023/08/14 01:12:28;;;;;;;38.90;22.58;;;;;;;;;;5072104;28;20028;-62
2023/08/14 01:14:57;;;;;;;51.17;26.00;;;;;;;;;;5072702;28;20398;-62
2023/08/14 01:17:24;;;;;;;46.05;26.77;;;;;;;;;;5071498;28;20117;-62
2023/08/14 01:19:51;;;;;;;53.37;29.07;;;;;;;;;;5072107;28;20040;-62
2023/08/14 01:22:21;;;;;;;57.53;28.03;;;;;;;;;;5071022;28;20440;-63
2023/08/14 01:24:59;;;;;;;54.30;28.27;;;;;;;;;;5071015;28;20052;-63
2023/08/14 01:27:24;;;;;;;59.77;31.77;;;;;;;;;;5071421;28;20026;-62
2023/08/14 01:29:51;;;;;;;54.47;30.40;;;;;;;;;;5072476;28;20029;-63
2023/08/14 01:32:16;;;;;;;55.65;29.67;;;;;;;;;;5071274;28;20474;-62
2023/08/14 01:34:42;;;;;;;51.13;27.73;;;;;;;;;;5072501;28;20104;-62
2023/08/14 01:37:12;;;;;;;53.97;28.10;;;;;;;;;;5072002;28;20032;-62
2023/08/14 01:39:43;;;;;;;54.67;29.00;;;;;;;;;;5063799;28;20449;-62
2023/08/14 01:42:16;;;;;;;46.00;24.33;;;;;;;;;;5066366;28;20094;-62
2023/08/14 01:44:42;;;;;;;48.47;27.67;;;;;;;;;;5070626;28;20024;-62
2023/08/14 01:47:11;;;;;;;58.13;29.90;;;;;;;;;;5073327;28;20016;-62
2023/08/14 01:49:37;;;;;;;51.90;30.10;;;;;;;;;;5069094;28;20012;-62
2023/08/14 01:52:03;;;;;;;49.83;28.73;;;;;;;;;;5072452;28;20078;-62
2023/08/14 01:54:29;;;;;;;36.87;22.17;;;;;;;;;;5071313;28;20020;-63
2023/08/14 01:56:55;;;;;;;36.37;20.33;;;;;;;;;;5071999;28;20039;-62
2023/08/14 01:59:28;;;;;;;36.47;21.43;;;;;;;;;;5072384;28;20013;-62
2023/08/14 02:01:53;;;;;;;46.27;25.20;;;;;;;;;;5067275;28;20472;-63
2023/08/14 02:04:18;;;;;;;48.53;25.33;;;;;;;;;;5072365;28;20036;-62
2023/08/14 02:06:43;;;;;;;49.00;26.53;;;;;;;;;;5071730;28;20055;-62
2023/08/14 02:09:09;;;;;;;43.83;25.47;;;;;;;;;;5071761;28;20017;-66
2023/08/14 02:11:34;;;;;;;43.30;24.83;;;;;;;;;;5071380;28;20025;-66
2023/08/14 02:13:59;;;;;;;43.97;24.20;;;;;;;;;;5071166;28;20032;-67
2023/08/14 02:16:25;;;;;;;38.03;22.17;;;;;;;;;;5070788;28;20029;-66
2023/08/14 02:18:50;;;;;;;39.63;20.83;;;;;;;;;;5071240;28;20013;-66
2023/08/14 02:21:16;;;;;;;31.73;17.07;;;;;;;;;;5071862;28;20032;-66
2023/08/14 02:23:41;;;;;;;43.33;22.70;;;;;;;;;;5072646;28;20025;-66
2023/08/14 02:26:06;;;;;;;41.40;21.77;;;;;;;;;;5072506;28;20016;-66
2023/08/14 02:28:31;;;;;;;48.93;26.03;;;;;;;;;;5072800;28;20030;-66
2023/08/14 02:30:57;;;;;;;44.27;23.80;;;;;;;;;;5076669;28;20090;-66
2023/08/14 02:33:22;;;;;;;51.10;26.53;;;;;;;;;;5074324;28;20097;-66
2023/08/14 02:35:47;;;;;;;43.50;24.47;;;;;;;;;;5074427;28;20032;-66
2023/08/14 02:38:12;;;;;;;50.20;26.60;;;;;;;;;;5073922;28;20464;-66
2023/08/14 02:40:38;;;;;;;60.73;23.60;;;;;;;;;;5075491;28;20089;-66
2023/08/14 02:43:03;;;;;;;40.33;22.53;;;;;;;;;;5073238;28;20024;-66
2023/08/14 02:45:29;;;;;;;57.03;27.63;;;;;;;;;;5074790;28;20025;-66
2023/08/14 02:47:54;;;;;;;58.47;30.03;;;;;;;;;;5074223;28;20031;-66
2023/08/14 02:50:21;;;;;;;60.80;31.70;;;;;;;;;;5075454;28;20403;-67
2023/08/14 02:52:47;;;;;;;53.93;28.83;;;;;;;;;;5079158;28;20020;-66
2023/08/14 02:55:12;;;;;;;53.87;28.97;;;;;;;;;;5078730;28;20039;-66
2023/08/14 02:57:37;;;;;;;59.80;31.90;;;;;;;;;;5077663;28;20036;-66
2023/08/14 03:00:04;;;;;;;58.63;32.93;;;;;;;;;;5075593;28;20033;-66
2023/08/14 03:02:29;;;;;;;68.20;34.13;;;;;;;;;;5075904;28;20036;-66
2023/08/14 03:04:54;;;;;;;65.40;35.70;;;;;;;;;;5059214;28;20546;-66
2023/08/14 03:07:20;;;;;;;55.37;29.67;;;;;;;;;;5058102;28;20446;-66
2023/08/14 03:09:45;;;;;;;54.87;29.30;;;;;;;;;;5057977;28;20032;-66
2023/08/14 03:12:10;;;;;;;42.83;24.37;;;;;;;;;;5055317;28;20040;-66
2023/08/14 03:14:35;;;;;;;45.10;22.80;;;;;;;;;;5063211;28;20082;-66
2023/08/14 03:17:01;;;;;;;39.70;22.13;;;;;;;;;;5057077;28;20104;-66
2023/08/14 03:19:26;;;;;;;52.37;27.90;;;;;;;;;;5059255;28;20516;-66
2023/08/14 03:21:52;;;;;;;47.03;24.83;;;;;;;;;;5060123;28;20523;-66
2023/08/14 03:24:18;;;;;;;29.10;16.37;;;;;;;;;;5062497;28;20041;-66
2023/08/14 03:26:43;;;;;;;26.33;15.13;;;;;;;;;;5059683;28;20171;-66
2023/08/14 03:29:08;;;;;;;28.83;15.83;;;;;;;;;;5065111;28;20013;-66
2023/08/14 03:31:33;;;;;;;26.10;14.90;;;;;;;;;;5070704;28;20028;-66
2023/08/14 03:33:59;;;;;;;35.33;17.80;;;;;;;;;;5068420;28;20046;-66
2023/08/14 03:36:24;;;;;;;53.73;24.80;;;;;;;;;;5067563;28;20024;-67
2023/08/14 03:38:49;;;;;;;62.07;29.37;;;;;;;;;;5071801;28;20486;-66
2023/08/14 03:41:15;;;;;;;53.40;28.23;;;;;;;;;;5065544;28;20108;-66
2023/08/14 03:43:40;;;;;;;51.20;27.23;;;;;;;;;;5055719;28;20029;-66
2023/08/14 03:46:05;;;;;;;49.43;27.00;;;;;;;;;;5055308;28;20025;-66
2023/08/14 03:48:33;;;;;;;53.73;28.57;;;;;;;;;;5062017;28;20460;-66
2023/08/14 03:50:58;;;;;;;50.57;27.33;;;;;;;;;;5056337;28;20104;-67
2023/08/14 03:53:23;;;;;;;51.70;27.10;;;;;;;;;;5052488;28;20113;-66
2023/08/14 03:55:49;;;;;;;47.30;26.47;;;;;;;;;;5059103;28;20052;-66
2023/08/14 03:58:14;;;;;;;53.60;27.77;;;;;;;;;;5049284;28;20030;-66
2023/08/14 04:00:39;;;;;;;51.90;26.73;;;;;;;;;;5062480;28;20100;-66
2023/08/14 04:03:04;;;;;;;47.37;25.67;;;;;;;;;;5056741;28;20067;-66
2023/08/14 04:05:30;;;;;;;43.77;24.03;;;;;;;;;;5035740;28;20017;-66
2023/08/14 04:07:55;;;;;;;44.57;21.70;;;;;;;;;;5053250;28;20028;-66
2023/08/14 04:10:20;;;;;;;40.30;20.73;;;;;;;;;;5053457;28;20500;-66
2023/08/14 04:12:45;;;;;;;45.13;22.93;;;;;;;;;;5052931;28;20031;-66
2023/08/14 04:15:12;;;;;;;52.87;28.73;;;;;;;;;;5053084;28;20021;-66
2023/08/14 04:17:37;;;;;;;53.90;28.43;;;;;;;;;;5052215;28;20395;-66
2023/08/14 04:20:03;;;;;;;49.47;26.87;;;;;;;;;;5053267;28;20108;-66
2023/08/14 04:22:28;;;;;;;54.77;27.80;;;;;;;;;;5053785;28;20079;-66
2023/08/14 04:24:53;;;;;;;51.97;28.70;;;;;;;;;;5055054;28;20047;-66
2023/08/14 04:27:19;;;;;;;57.20;29.77;;;;;;;;;;5052614;28;20021;-66
2023/08/14 04:29:44;;;;;;;60.83;30.00;;;;;;;;;;5053039;28;20029;-66
2023/08/14 04:32:09;;;;;;;55.33;27.67;;;;;;;;;;5053836;28;20029;-66
2023/08/14 04:34:34;;;;;;;44.20;25.27;;;;;;;;;;5050812;28;20032;-66
2023/08/14 04:36:59;;;;;;;32.97;21.30;;;;;;;;;;5053554;28;20094;-66
2023/08/14 04:39:25;;;;;;;36.60;21.80;;;;;;;;;;5050759;28;20120;-65
2023/08/14 04:41:50;;;;;;;33.30;20.63;;;;;;;;;;5054921;28;20075;-66
2023/08/14 04:44:15;;;;;;;38.30;20.83;;;;;;;;;;5054111;28;20081;-66
2023/08/14 04:46:40;;;;;;;36.67;20.07;;;;;;;;;;5053764;28;20056;-66
2023/08/14 04:49:06;;;;;;;28.30;17.13;;;;;;;;;;5054084;28;20025;-66
2023/08/14 04:51:31;;;;;;;24.57;15.80;;;;;;;;;;5057268;28;20273;-66
2023/08/14 04:53:57;;;;;;;24.90;15.07;;;;;;;;;;5065036;28;20032;-66
2023/08/14 04:56:22;;;;;;;16.13;12.57;;;;;;;;;;5053700;28;20021;-66
2023/08/14 04:58:47;;;;;;;16.35;9.75;;;;;;;;;;5053691;28;20033;-66
2023/08/14 05:01:13;;;;;;;12.27;7.05;;;;;;;;;;5053350;28;20151;-66
2023/08/14 05:03:38;;;;;;;10.73;6.07;;;;;;;;;;5057816;28;20051;-65
2023/08/14 05:06:03;;;;;;;6.68;4.13;;;;;;;;;;5073492;28;20059;-65
2023/08/14 05:08:29;;;;;;;7.95;4.00;;;;;;;;;;5071146;28;20430;-64
2023/08/14 05:10:54;;;;;;;7.07;3.30;;;;;;;;;;5073001;28;20033;-64
2023/08/14 05:13:20;;;;;;;6.80;3.30;;;;;;;;;;5070286;28;20028;-64
2023/08/14 05:15:48;;;;;;;5.43;2.70;;;;;;;;;;5072066;28;20055;-64
2023/08/14 05:18:13;;;;;;;5.50;2.83;;;;;;;;;;5072953;28;20024;-64
2023/08/14 05:20:41;;;;;;;5.45;2.90;;;;;;;;;;5072999;28;20020;-64
2023/08/14 05:23:06;;;;;;;4.68;2.97;;;;;;;;;;5073090;28;20070;-64
2023/08/14 05:25:32;;;;;;;7.38;2.75;;;;;;;;;;5071452;28;20040;-64
2023/08/14 05:27:57;;;;;;;5.82;2.53;;;;;;;;;;5070725;28;20029;-64
2023/08/14 05:30:22;;;;;;;6.53;2.45;;;;;;;;;;5071737;28;20067;-63
2023/08/14 05:32:48;;;;;;;7.07;2.40;;;;;;;;;;5070917;28;20032;-63
2023/08/14 05:35:15;;;;;;;4.55;2.25;;;;;;;;;;5071864;28;20036;-63
2023/08/14 05:37:41;;;;;;;7.30;2.50;;;;;;;;;;5073163;28;20040;-64
2023/08/14 05:40:06;;;;;;;5.22;2.70;;;;;;;;;;5072034;28;20497;-64
2023/08/14 05:42:32;;;;;;;6.93;2.92;;;;;;;;;;5072448;28;20392;-64
2023/08/14 05:44:57;;;;;;;7.50;3.15;;;;;;;;;;5070953;28;20017;-64
2023/08/14 05:47:22;;;;;;;7.20;3.17;;;;;;;;;;5073546;28;20040;-63
2023/08/14 05:49:47;;;;;;;9.55;3.15;;;;;;;;;;5067445;28;20036;-63
2023/08/14 05:52:13;;;;;;;10.27;3.30;;;;;;;;;;5067814;28;20377;-64
2023/08/14 05:54:39;;;;;;;7.45;3.38;;;;;;;;;;5070389;28;20104;-63
2023/08/14 05:57:04;;;;;;;6.15;3.20;;;;;;;;;;5071581;28;20496;-63
2023/08/14 05:59:30;;;;;;;8.60;3.60;;;;;;;;;;5071180;28;20031;-63
2023/08/14 06:01:55;;;;;;;7.05;3.38;;;;;;;;;;5071089;28;20025;-63
2023/08/14 06:04:21;;;;;;;7.68;3.60;;;;;;;;;;5063140;28;20045;-63
2023/08/14 06:06:46;;;;;;;7.63;3.65;;;;;;;;;;5055558;28;20025;-63
2023/08/14 06:09:11;;;;;;;8.65;4.13;;;;;;;;;;5062770;28;20020;-63
2023/08/14 06:11:36;;;;;;;9.38;3.55;;;;;;;;;;5055027;28;20040;-63
2023/08/14 06:14:01;;;;;;;8.25;4.07;;;;;;;;;;5052981;28;20070;-63
2023/08/14 06:16:27;;;;;;;10.75;4.10;;;;;;;;;;5054662;28;20035;-63
2023/08/14 06:18:52;;;;;;;8.80;4.10;;;;;;;;;;5060721;28;20033;-63
2023/08/14 06:21:17;;;;;;;11.30;4.28;;;;;;;;;;5056505;28;20036;-64
2023/08/14 06:23:42;;;;;;;8.63;3.88;;;;;;;;;;5056556;28;20021;-64
2023/08/14 06:26:08;;;;;;;14.38;4.38;;;;;;;;;;5056238;28;20448;-64
2023/08/14 06:28:33;;;;;;;10.30;3.90;;;;;;;;;;5051576;28;20040;-63
2023/08/14 06:31:01;;;;;;;18.33;5.05;;;;;;;;;;5056101;28;20025;-64
2023/08/14 06:33:27;;;;;;;9.82;3.75;;;;;;;;;;5049530;28;20036;-63
2023/08/14 06:35:52;;;;;;;8.52;3.40;;;;;;;;;;5055705;28;20020;-65
2023/08/14 06:38:17;;;;;;;9.50;3.63;;;;;;;;;;5056657;28;20036;-64
2023/08/14 06:40:42;;;;;;;10.65;3.42;;;;;;;;;;5058266;28;20017;-64
2023/08/14 06:43:08;;;;;;;8.27;3.38;;;;;;;;;;5076544;28;20101;-65
2023/08/14 06:45:33;;;;;;;11.27;3.40;;;;;;;;;;5063382;28;20091;-64
2023/08/14 06:47:58;;;;;;;11.13;3.60;;;;;;;;;;5059503;28;20039;-64
2023/08/14 06:50:24;;;;;;;11.50;3.40;;;;;;;;;;5058532;28;20013;-64
2023/08/14 06:52:49;;;;;;;6.47;3.33;;;;;;;;;;5067411;28;20016;-65
2023/08/14 06:55:14;;;;;;;8.50;3.35;;;;;;;;;;5062188;28;20024;-65
2023/08/14 06:57:39;;;;;;;6.93;3.20;;;;;;;;;;5057261;28;20483;-65
2023/08/14 07:00:12;;;;;;;9.48;3.28;;;;;;;;;;5056174;28;20529;-65
2023/08/14 07:02:37;;;;;;;8.30;3.47;;;;;;;;;;5059933;28;20461;-66
2023/08/14 07:05:02;;;;;;;7.90;3.60;;;;;;;;;;5067516;28;20116;-66
2023/08/14 07:07:27;;;;;;;9.93;3.80;;;;;;;;;;5078337;28;20071;-66
2023/08/14 07:09:52;;;;;;;8.38;4.05;;;;;;;;;;5095928;28;20035;-67
2023/08/14 07:12:18;;;;;;;8.45;3.75;;;;;;;;;;5094779;28;20031;-67
2023/08/14 07:14:43;;;;;;;9.57;3.85;;;;;;;;;;5075012;28;20081;-67
2023/08/14 07:17:08;;;;;;;8.52;3.88;;;;;;;;;;5073962;28;20406;-66
2023/08/14 07:19:35;;;;;;;10.00;3.53;;;;;;;;;;5074846;28;20388;-67
2023/08/14 07:22:00;;;;;;;9.05;3.50;;;;;;;;;;5069562;28;20024;-67
2023/08/14 07:24:26;;;;;;;6.57;3.40;;;;;;;;;;5075350;28;20027;-66
2023/08/14 07:26:51;;;;;;;9.63;3.33;;;;;;;;;;5080549;28;20024;-66
2023/08/14 07:29:17;;;;;;;9.90;3.25;;;;;;;;;;5080877;28;20021;-67
2023/08/14 07:31:42;;;;;;;8.07;3.33;;;;;;;;;;5068027;28;20021;-67
2023/08/14 07:34:07;;;;;;;5.68;3.20;;;;;;;;;;5073013;28;20090;-68
2023/08/14 07:36:32;;;;;;;7.10;2.85;;;;;;;;;;5072659;28;20436;-67
2023/08/14 07:38:57;;;;;;;6.93;3.22;;;;;;;;;;5074312;28;20030;-67
2023/08/14 07:41:23;;;;;;;9.40;3.20;;;;;;;;;;5072928;28;20063;-68
2023/08/14 07:43:48;;;;;;;6.50;2.97;;;;;;;;;;5072890;28;20024;-68
2023/08/14 07:46:13;;;;;;;8.88;3.65;;;;;;;;;;5072440;28;20025;-68
2023/08/14 07:48:38;;;;;;;7.65;3.08;;;;;;;;;;5072663;28;20013;-68
2023/08/14 07:51:04;;;;;;;8.25;3.20;;;;;;;;;;5067961;28;20028;-68
2023/08/14 07:53:29;;;;;;;8.90;3.00;;;;;;;;;;5076717;28;20028;-69
2023/08/14 07:55:54;;;;;;;7.43;2.90;;;;;;;;;;5074230;28;20035;-69
2023/08/14 07:58:20;;;;;;;9.70;3.00;;;;;;;;;;5092637;28;20031;-69
2023/08/14 08:00:45;;;;;;;8.63;2.85;;;;;;;;;;5081891;28;20025;-69
2023/08/14 08:03:10;;;;;;;8.93;3.00;;;;;;;;;;5073411;28;20464;-69
2023/08/14 08:05:36;;;;;;;11.98;2.88;;;;;;;;;;5055144;28;20021;-69
2023/08/14 08:08:02;;;;;;;8.95;2.70;;;;;;;;;;5053920;28;20025;-69
2023/08/14 08:10:27;;;;;;;7.65;2.88;;;;;;;;;;5054338;28;20043;-69
2023/08/14 08:12:52;;;;;;;7.93;3.10;;;;;;;;;;5054765;28;20030;-70
2023/08/14 08:15:18;;;;;;;9.00;3.00;;;;;;;;;;5054378;28;20024;-71
2023/08/14 08:17:43;;;;;;;12.70;3.33;;;;;;;;;;5054406;28;20056;-71
2023/08/14 08:20:09;;;;;;;7.97;2.65;;;;;;;;;;5054352;28;20036;-71
2023/08/14 08:22:34;;;;;;;8.68;3.40;;;;;;;;;;5054874;28;20021;-70
2023/08/14 08:24:59;;;;;;;9.63;3.22;;;;;;;;;;5054653;28;20043;-70
2023/08/14 08:27:24;;;;;;;9.88;3.40;;;;;;;;;;5054093;28;20044;-70
2023/08/14 08:29:50;;;;;;;7.88;3.45;;;;;;;;;;5054278;28;20534;-70
2023/08/14 08:32:15;;;;;;;8.15;3.10;;;;;;;;;;5053148;28;20388;-70
2023/08/14 08:34:40;;;;;;;9.20;3.38;;;;;;;;;;5054339;28;20020;-70
2023/08/14 08:37:06;;;;;;;7.68;3.30;;;;;;;;;;5057054;28;20016;-70
2023/08/14 08:39:31;;;;;;;9.93;3.80;;;;;;;;;;5052508;28;20028;-69
2023/08/14 08:41:57;;;;;;;8.45;3.10;;;;;;;;;;5053292;28;20036;-69
2023/08/14 08:44:24;;;;;;;8.40;3.10;;;;;;;;;;5055517;28;20077;-67
2023/08/14 08:46:56;;;;;;;7.57;3.20;;;;;;;;;;5054550;28;20426;-68
2023/08/14 08:49:22;;;;;;;10.05;3.00;;;;;;;;;;5051783;28;20536;-67
2023/08/14 08:51:48;;;;;;;9.82;2.97;;;;;;;;;;5055926;28;20532;-67
2023/08/14 08:54:16;;;;;;;8.38;2.78;;;;;;;;;;5052851;28;20155;-67
2023/08/14 08:56:42;;;;;;;8.88;2.70;;;;;;;;;;5053941;28;20432;-67
2023/08/14 08:59:08;;;;;;;7.78;2.85;;;;;;;;;;5056505;28;20044;-67
2023/08/14 09:01:33;;;;;;;8.95;2.58;;;;;;;;;;5053475;28;20372;-67
2023/08/14 09:03:58;;;;;;;5.68;2.35;;;;;;;;;;5056234;28;20041;-68
2023/08/14 09:06:23;;;;;;;9.18;2.80;;;;;;;;;;5073734;28;20020;-69
2023/08/14 09:08:49;;;;;;;9.60;2.95;;;;;;;;;;5073735;28;20019;-69
2023/08/14 09:11:14;;;;;;;10.32;2.75;;;;;;;;;;5073318;28;20024;-68
2023/08/14 09:13:40;;;;;;;6.57;2.20;;;;;;;;;;5067388;28;20017;-69
2023/08/14 09:16:05;;;;;;;6.63;2.58;;;;;;;;;;5073694;28;20452;-69
2023/08/14 09:18:31;;;;;;;9.23;2.90;;;;;;;;;;5073647;28;20380;-67
2023/08/14 09:20:57;;;;;;;6.90;2.50;;;;;;;;;;5073525;28;20431;-67
2023/08/14 09:23:22;;;;;;;5.90;2.15;;;;;;;;;;5073246;28;20025;-67
2023/08/14 09:25:49;;;;;;;6.60;2.30;;;;;;;;;;5073489;28;20020;-68
2023/08/14 09:28:16;;;;;;;8.55;2.70;;;;;;;;;;5073187;28;20012;-68
2023/08/14 09:30:41;;;;;;;11.43;2.65;;;;;;;;;;5073422;28;20021;-67
2023/08/14 09:33:11;;;;;;;7.93;2.10;;;;;;;;;;5055175;28;20495;-67
2023/08/14 09:35:36;;;;;;;8.45;2.60;;;;;;;;;;5072901;28;20107;-67
2023/08/14 09:38:02;;;;;;;8.93;2.17;;;;;;;;;;5072792;28;20486;-67
2023/08/14 09:40:28;;;;;;;6.40;2.35;;;;;;;;;;5069507;28;20017;-70
2023/08/14 09:42:54;;;;;;;9.10;2.70;;;;;;;;;;5073281;28;20032;-67
2023/08/14 09:45:23;;;;;;;9.98;2.60;;;;;;;;;;5072805;28;20032;-67
2023/08/14 09:47:49;;;;;;;10.20;2.47;;;;;;;;;;5072877;28;20020;-66
2023/08/14 09:50:15;;;;;;;8.63;2.35;;;;;;;;;;5073240;28;20021;-66
2023/08/14 09:52:41;;;;;;;7.18;1.73;;;;;;;;;;5072970;28;20020;-67
2023/08/14 09:55:07;;;;;;;8.70;2.10;;;;;;;;;;5072824;28;20021;-67
2023/08/14 09:57:32;;;;;;;6.90;1.80;;;;;;;;;;5072854;28;20116;-66
2023/08/14 09:59:58;;;;;;;7.55;1.67;;;;;;;;;;5072303;28;20447;-66
2023/08/14 10:02:23;;;;;;;6.57;1.50;;;;;;;;;;5073088;28;20078;-66
2023/08/14 10:04:49;;;;;;;7.20;1.90;;;;;;;;;;5065677;28;20041;-66
2023/08/14 10:07:15;;;;;;;6.85;1.80;;;;;;;;;;5072409;28;20017;-67
2023/08/14 10:09:43;;;;;;;6.47;1.70;;;;;;;;;;5072507;28;20020;-66
2023/08/14 10:12:11;;;;;;;5.70;1.40;;;;;;;;;;5071798;28;20028;-67
2023/08/14 10:14:37;;;;;;;7.25;1.75;;;;;;;;;;5071445;28;20492;-66
2023/08/14 10:17:03;;;;;;;8.35;2.30;;;;;;;;;;5072591;28;20483;-67
2023/08/14 10:19:30;;;;;;;7.30;2.03;;;;;;;;;;5072907;28;20491;-67
2023/08/14 10:21:56;;;;;;;4.63;1.42;;;;;;;;;;5072515;28;20121;-67
2023/08/14 10:24:22;;;;;;;6.85;1.50;;;;;;;;;;5072826;28;20020;-67
2023/08/14 10:26:47;;;;;;;8.85;1.70;;;;;;;;;;5072635;28;20020;-66
2023/08/14 10:29:13;;;;;;;4.55;1.40;;;;;;;;;;5072520;28;20028;-66
2023/08/14 10:31:38;;;;;;;6.28;1.45;;;;;;;;;;5072632;28;20020;-66
2023/08/14 10:34:04;;;;;;;7.07;1.60;;;;;;;;;;5072217;28;20008;-67
2023/08/14 10:36:30;;;;;;;6.32;1.75;;;;;;;;;;5080002;28;20090;-67
2023/08/14 10:39:05;;;;;;;8.13;1.90;;;;;;;;;;5092025;28;20018;-67
2023/08/14 10:41:32;;;;;;;4.78;1.00;;;;;;;;;;5072680;28;20421;-66
2023/08/14 10:43:57;;;;;;;4.13;1.08;;;;;;;;;;5072709;28;20540;-66
2023/08/14 10:46:23;;;;;;;4.00;1.20;;;;;;;;;;5072735;28;20087;-66
2023/08/14 10:48:48;;;;;;;4.22;1.10;;;;;;;;;;5069348;28;20286;-67
2023/08/14 10:51:16;;;;;;;7.30;1.30;;;;;;;;;;5075496;28;20104;-67
2023/08/14 10:53:41;;;;;;;5.25;1.38;;;;;;;;;;5076055;28;20052;-67
2023/08/14 10:56:07;;;;;;;4.90;1.27;;;;;;;;;;5070853;28;20029;-67
2023/08/14 10:58:32;;;;;;;5.35;1.40;;;;;;;;;;5075015;28;20028;-68
2023/08/14 11:00:58;;;;;;;5.32;1.35;;;;;;;;;;5075389;28;20052;-71
2023/08/14 11:03:24;;;;;;;4.90;1.25;;;;;;;;;;5075668;28;20012;-70
2023/08/14 11:05:49;;;;;;;6.63;1.38;;;;;;;;;;5075812;28;20032;-67
2023/08/14 11:08:15;;;;;;;4.55;1.40;;;;;;;;;;5072659;28;20009;-68
2023/08/14 11:10:41;;;;;;;5.50;1.08;;;;;;;;;;5060662;28;20052;-69
2023/08/14 11:13:07;;;;;;;7.60;1.38;;;;;;;;;;5055922;28;20100;-69
2023/08/14 11:15:33;;;;;;;5.28;1.38;;;;;;;;;;5055381;28;20029;-71
2023/08/14 11:17:59;;;;;;;5.85;1.30;;;;;;;;;;5055547;28;20526;-69
2023/08/14 11:20:28;;;;;;;5.97;1.20;;;;;;;;;;5055845;28;20017;-69
2023/08/14 11:22:53;;;;;;;5.82;1.50;;;;;;;;;;5055480;28;20357;-69
2023/08/14 11:25:19;;;;;;;5.13;1.30;;;;;;;;;;5055478;28;20108;-69
2023/08/14 11:27:49;;;;;;;5.55;1.33;;;;;;;;;;5055463;28;20075;-71
2023/08/14 11:30:14;;;;;;;5.90;1.50;;;;;;;;;;5055660;28;20048;-72
2023/08/14 11:32:39;;;;;;;6.82;1.60;;;;;;;;;;5055359;28;20452;-72
2023/08/14 11:35:05;;;;;;;5.22;1.50;;;;;;;;;;5055436;28;20017;-72
2023/08/14 11:37:31;;;;;;;5.60;1.42;;;;;;;;;;5054461;28;20118;-70
2023/08/14 11:40:00;;;;;;;5.57;1.40;;;;;;;;;;5053892;28;20386;-70
2023/08/14 11:42:25;;;;;;;5.75;1.55;;;;;;;;;;5054734;28;20033;-71
2023/08/14 11:44:50;;;;;;;5.68;1.42;;;;;;;;;;5071127;28;20587;-71
2023/08/14 11:47:16;;;;;;;6.43;1.70;;;;;;;;;;5071588;28;20013;-71
2023/08/14 11:49:41;;;;;;;6.65;1.70;;;;;;;;;;5054411;28;20032;-71
2023/08/14 11:52:07;;;;;;;6.00;1.63;;;;;;;;;;5054563;28;20040;-71
2023/08/14 11:54:33;;;;;;;9.98;1.70;;;;;;;;;;5054302;28;20511;-72
2023/08/14 11:57:08;;;;;;;7.47;1.50;;;;;;;;;;5054384;28;20090;-71
2023/08/14 11:59:33;;;;;;;6.22;1.60;;;;;;;;;;5054832;28;20025;-71
2023/08/14 12:01:59;;;;;;;5.57;1.50;;;;;;;;;;5053802;28;20036;-71
2023/08/14 12:04:24;;;;;;;5.57;1.55;;;;;;;;;;5064605;28;20098;-69
2023/08/14 12:06:50;;;;;;;7.05;1.40;;;;;;;;;;5073895;28;20060;-72
2023/08/14 12:09:15;;;;;;;6.57;1.45;;;;;;;;;;5059004;28;20100;-73
2023/08/14 12:11:40;;;;;;;8.05;1.55;;;;;;;;;;5068158;28;20025;-73
2023/08/14 12:14:06;;;;;;;5.03;1.50;;;;;;;;;;5067648;28;20435;-73
2023/08/14 12:16:32;;;;;;;6.70;1.65;;;;;;;;;;5074318;28;20380;-74
2023/08/14 12:18:57;;;;;;;5.68;1.27;;;;;;;;;;5073620;28;20033;-75
2023/08/14 12:21:28;;;;;;;7.80;1.60;;;;;;;;;;5074025;28;20082;-75
2023/08/14 12:23:54;;;;;;;6.45;1.52;;;;;;;;;;5072697;28;20495;-75
2023/08/14 12:26:19;;;;;;;5.35;1.30;;;;;;;;;;5068775;28;20008;-74
2023/08/14 12:28:44;;;;;;;5.50;1.38;;;;;;;;;;5073478;28;20025;-77
2023/08/14 12:31:10;;;;;;;5.05;1.40;;;;;;;;;;5073600;28;20012;-74
2023/08/14 12:33:36;;;;;;;5.68;1.40;;;;;;;;;;5064242;28;20418;-75
2023/08/14 12:36:01;;;;;;;5.07;1.50;;;;;;;;;;5055532;28;20108;-72
2023/08/14 12:38:26;;;;;;;5.40;1.40;;;;;;;;;;5056029;28;20440;-70
2023/08/14 12:40:52;;;;;;;4.45;1.30;;;;;;;;;;5066690;28;20021;-71
2023/08/14 12:43:17;;;;;;;4.43;1.40;;;;;;;;;;5078081;28;20422;-70
2023/08/14 12:45:43;;;;;;;4.38;1.30;;;;;;;;;;5071506;28;20051;-71
2023/08/14 12:48:08;;;;;;;5.43;1.40;;;;;;;;;;5074047;28;20461;-70
2023/08/14 12:50:33;;;;;;;8.00;1.45;;;;;;;;;;5073886;28;20031;-70
2023/08/14 12:52:58;;;;;;;5.55;1.25;;;;;;;;;;5073060;28;20024;-67
2023/08/14 12:55:24;;;;;;;5.18;1.40;;;;;;;;;;5071206;28;20051;-66
2023/08/14 12:57:49;;;;;;;6.00;1.30;;;;;;;;;;5057047;28;20024;-68
2023/08/14 13:00:14;;;;;;;8.85;1.70;;;;;;;;;;5065571;28;20167;-70
2023/08/14 13:02:40;;;;;;;5.10;1.25;;;;;;;;;;5071692;28;20075;-71
2023/08/14 13:05:05;;;;;;;6.60;1.30;;;;;;;;;;5056707;28;20072;-69
2023/08/14 13:07:31;;;;;;;5.03;1.42;;;;;;;;;;5034905;28;20016;-69
2023/08/14 13:09:56;;;;;;;6.95;1.40;;;;;;;;;;5053534;28;20380;-68
2023/08/14 13:12:22;;;;;;;7.22;1.70;;;;;;;;;;5053481;28;20024;-67
2023/08/14 13:14:47;;;;;;;5.13;1.52;;;;;;;;;;5052903;28;20067;-68
2023/08/14 13:17:12;;;;;;;6.63;1.60;;;;;;;;;;5056510;28;20017;-68
2023/08/14 13:19:37;;;;;;;5.53;1.48;;;;;;;;;;5053089;28;20047;-69
2023/08/14 13:22:03;;;;;;;8.20;1.70;;;;;;;;;;5053177;28;20056;-68
2023/08/14 13:24:28;;;;;;;4.53;1.48;;;;;;;;;;5053320;28;20031;-70
2023/08/14 13:26:53;;;;;;;6.03;1.30;;;;;;;;;;5053614;28;20017;-68
2023/08/14 13:29:19;;;;;;;6.38;1.60;;;;;;;;;;5053195;28;20251;-67
2023/08/14 13:31:46;;;;;;;6.40;1.50;;;;;;;;;;5053064;28;20016;-68
2023/08/14 13:34:11;;;;;;;4.93;1.48;;;;;;;;;;5052928;28;20017;-68
2023/08/14 13:36:37;;;;;;;5.47;1.50;;;;;;;;;;5052607;28;20035;-67
2023/08/14 13:39:02;;;;;;;4.40;1.30;;;;;;;;;;5053127;28;20060;-68
2023/08/14 13:41:28;;;;;;;5.53;1.40;;;;;;;;;;5052563;28;20315;-69
2023/08/14 13:43:53;;;;;;;7.78;1.70;;;;;;;;;;5050705;28;20043;-67
2023/08/14 13:46:18;;;;;;;4.82;1.60;;;;;;;;;;5052663;28;20017;-66
2023/08/14 13:48:44;;;;;;;5.40;1.45;;;;;;;;;;5053135;28;20024;-67
2023/08/14 13:51:10;;;;;;;6.47;1.58;;;;;;;;;;5051970;28;20024;-68
2023/08/14 13:53:35;;;;;;;4.72;1.92;;;;;;;;;;5048209;28;20013;-66
2023/08/14 13:56:01;;;;;;;5.28;1.52;;;;;;;;;;5050633;28;20484;-67
2023/08/14 13:58:26;;;;;;;6.70;1.58;;;;;;;;;;5053935;28;20017;-67
2023/08/14 14:00:51;;;;;;;6.35;1.40;;;;;;;;;;5046622;28;20017;-71
2023/08/14 14:03:16;;;;;;;4.57;1.50;;;;;;;;;;5058958;28;20013;-77
2023/08/14 14:05:42;;;;;;;5.63;1.55;;;;;;;;;;5077410;28;20057;-74
2023/08/14 14:08:07;;;;;;;5.93;1.80;;;;;;;;;;5072567;28;20008;-75
2023/08/14 14:10:32;;;;;;;6.13;1.50;;;;;;;;;;5069951;28;20353;-74
2023/08/14 14:12:57;;;;;;;6.50;1.70;;;;;;;;;;5072034;28;20461;-75
2023/08/14 14:15:23;;;;;;;6.72;1.60;;;;;;;;;;5069786;28;20012;-74
2023/08/14 14:17:48;;;;;;;7.97;1.65;;;;;;;;;;5072447;28;20472;-73
2023/08/14 14:20:15;;;;;;;4.57;1.42;;;;;;;;;;5072577;28;20021;-75
2023/08/14 14:22:40;;;;;;;5.60;1.38;;;;;;;;;;5072651;28;20442;-72
2023/08/14 14:25:06;;;;;;;6.55;1.60;;;;;;;;;;5074289;28;20032;-72